Meteorología y climatología de Navarra
Datos de la estación - Meteo Navarra

Estación de Yesa GN

Altitud 487 m.


Datos desde el 23/05/2020 hasta el 24/05/2020 en horario solar
Los datos son PROVISIONALES

Anterior Página 1 de 1 Siguiente Descargar: Formato para Excel 2000 o superior   Formato csv   Formato para OpenOffice Calc
Fecha Temperatura Humedad relativa Radiación global Insolación Precipitación Vel. viento 10 m Vel. viento 10 m Dir. viento 10 m
ºC % W/m² s l/m² m/s km/h º
23/05/2020 0:00 16.0 88 0.0 0 0.0 0.0 0.0 256
23/05/2020 0:10 15.6 90 0.0 0 0.0 0.0 0.1 18
23/05/2020 0:20 15.4 90 0.0 0 0.0 0.2 0.7 273
23/05/2020 0:30 15.6 92 0.0 0 0.0 1.5 5.3 322
23/05/2020 0:40 15.7 89 0.0 0 0.0 0.9 3.2 300
23/05/2020 0:50 15.6 90 0.0 0 0.0 1.1 3.9 299
23/05/2020 1:00 15.8 91 0.0 0 0.0 2.4 8.6 314
23/05/2020 1:10 16.6 89 0.0 0 0.0 1.7 5.9 305
23/05/2020 1:20 16.7 88 0.0 0 0.0 1.9 6.9 307
23/05/2020 1:30 16.8 89 0.0 0 0.0 2.4 8.6 307
23/05/2020 1:40 16.8 88 0.0 0 0.0 2.6 9.3 308
23/05/2020 1:50 16.8 87 0.0 0 0.0 2.7 9.8 305
23/05/2020 2:00 16.0 90 0.0 0 0.0 2.3 8.4 318
23/05/2020 2:10 16.1 90 0.0 0 0.0 1.6 5.6 292
23/05/2020 2:20 16.3 90 0.0 0 0.0 2.4 8.7 305
23/05/2020 2:30 16.0 90 0.0 0 0.0 1.9 6.8 310
23/05/2020 2:40 15.9 91 0.0 0 0.0 1.7 6.3 302
23/05/2020 2:50 16.2 90 0.0 0 0.0 1.6 5.8 310
23/05/2020 3:00 15.7 91 0.0 0 0.0 2.1 7.4 312
23/05/2020 3:10 15.7 91 0.0 0 0.0 1.7 6.1 321
23/05/2020 3:20 15.5 91 0.0 0 0.0 1.9 6.7 314
23/05/2020 3:30 15.5 92 0.0 0 0.0 1.1 4.0 313
23/05/2020 3:40 15.5 91 0.0 0 0.0 0.5 1.7 331
23/05/2020 3:50 15.6 90 0.0 0 0.0 0.8 2.7 218
23/05/2020 4:00 15.9 88 0.0 0 0.0 0.8 2.9 339
23/05/2020 4:10 15.9 88 0.0 0 0.0 1.1 4.1 310
23/05/2020 4:20 15.7 89 0.0 0 0.0 1.2 4.4 328
23/05/2020 4:30 15.6 89 0.0 0 0.0 1.5 5.4 307
23/05/2020 4:40 15.4 89 0.0 0 0.0 1.3 4.7 300
23/05/2020 4:50 15.5 89 0.0 0 0.0 2.3 8.2 307
23/05/2020 5:00 15.4 89 0.0 0 0.0 1.0 3.4 295
23/05/2020 5:10 15.5 89 0.0 0 0.0 1.4 4.9 308
23/05/2020 5:20 15.4 89 10.3 0 0.0 1.1 3.9 305
23/05/2020 5:30 15.2 89 24.3 0 0.0 1.0 3.7 341
23/05/2020 5:40 15.1 90 45.7 0 0.0 2.0 7.0 319
23/05/2020 5:50 15.1 91 84.1 146 0.0 2.2 8.0 314
23/05/2020 6:00 15.5 89 128.5 440 0.0 1.1 4.1 327
23/05/2020 6:10 15.9 88 177.6 600 0.0 1.6 5.9 319
23/05/2020 6:20 16.2 85 177.0 362 0.0 1.2 4.2 301
23/05/2020 6:30 16.5 85 205.5 322 0.0 1.0 3.6 334
23/05/2020 6:40 16.6 84 196.4 248 0.0 0.9 3.4 314
23/05/2020 6:50 16.8 84 325.5 522 0.0 1.4 5.0 322
23/05/2020 7:00 17.0 82 247.8 364 0.0 1.2 4.4 316
23/05/2020 7:10 17.3 81 344.1 600 0.0 1.5 5.4 285
23/05/2020 7:20 17.4 81 385.7 574 0.0 0.8 2.9 267
23/05/2020 7:30 18.0 79 398.3 490 0.0 0.6 2.3 261
23/05/2020 7:40 18.0 79 230.7 116 0.0 0.4 1.5 213
23/05/2020 7:50 18.3 78 392.0 412 0.0 1.4 4.9 186
23/05/2020 8:00 18.6 76 475.5 442 0.0 1.5 5.4 194
23/05/2020 8:10 18.9 75 412.8 346 0.0 1.4 5.0 196
23/05/2020 8:20 19.1 74 611.6 590 0.0 1.1 3.8 178
23/05/2020 8:30 19.8 72 687.7 600 0.0 1.0 3.7 175
23/05/2020 8:40 20.3 70 596.9 600 0.0 1.5 5.3 190
23/05/2020 8:50 20.4 69 742.5 600 0.0 1.4 5.2 169
23/05/2020 9:00 20.9 66 664.1 562 0.0 1.5 5.4 182
23/05/2020 9:10 21.4 63 454.1 414 0.0 1.2 4.4 145
23/05/2020 9:20 21.7 63 562.7 550 0.0 1.0 3.7 165
23/05/2020 9:30 21.8 61 709.9 600 0.0 1.8 6.4 261
23/05/2020 9:40 22.1 61 804.0 600 0.0 1.9 6.7 307
23/05/2020 9:50 22.8 60 778.0 600 0.0 3.6 13.0 320
23/05/2020 10:00 22.7 60 855.0 600 0.0 4.4 15.7 325
23/05/2020 10:10 22.7 60 845.0 576 0.0 4.4 15.7 319
23/05/2020 10:20 22.9 59 738.3 600 0.0 3.6 13.1 315
23/05/2020 10:30 22.6 59 825.0 600 0.0 5.0 18.1 323
23/05/2020 10:40 22.9 57 915.0 600 0.0 5.3 19.0 315
23/05/2020 10:50 23.0 58 917.0 600 0.0 5.0 18.1 321
23/05/2020 11:00 23.1 57 947.0 600 0.0 5.0 17.9 310
23/05/2020 11:10 23.1 57 966.0 600 0.0 5.7 20.6 317
23/05/2020 11:20 23.0 57 976.0 600 0.0 5.8 20.8 314
23/05/2020 11:30 23.1 57 980.0 600 0.0 5.9 21.4 315
23/05/2020 11:40 22.8 57 985.0 600 0.0 6.4 23.0 316
23/05/2020 11:50 22.6 57 942.0 600 0.0 6.0 21.5 316
23/05/2020 12:00 22.3 58 916.0 600 0.0 6.7 24.1 323
23/05/2020 12:10 22.1 57 949.0 600 0.0 6.6 23.6 312
23/05/2020 12:20 22.1 56 993.0 600 0.0 6.4 23.0 314
23/05/2020 12:30 22.0 56 994.0 600 0.0 7.2 26.1 315
23/05/2020 12:40 21.9 56 1013.0 600 0.0 5.8 20.8 318
23/05/2020 12:50 22.0 57 948.0 600 0.0 5.8 20.9 316
23/05/2020 13:00 22.4 56 958.0 600 0.0 5.7 20.5 318
23/05/2020 13:10 22.2 55 952.0 600 0.0 5.8 21.0 309
23/05/2020 13:20 22.3 55 940.0 600 0.0 5.4 19.6 312
23/05/2020 13:30 22.1 54 927.0 600 0.0 5.9 21.1 311
23/05/2020 13:40 22.1 54 848.0 598 0.0 4.5 16.0 309
23/05/2020 13:50 22.3 55 903.0 600 0.0 5.0 18.0 323
23/05/2020 14:00 22.9 54 907.0 600 0.0 4.3 15.3 329
23/05/2020 14:10 23.4 52 871.0 600 0.0 4.9 17.5 321
23/05/2020 14:20 22.9 52 832.0 600 0.0 5.8 20.7 308
23/05/2020 14:30 21.8 53 544.7 454 0.0 4.4 15.9 291
23/05/2020 14:40 21.1 54 329.2 0 0.0 3.3 12.0 279
23/05/2020 14:50 20.5 56 561.0 416 0.0 3.2 11.5 282
23/05/2020 15:00 21.1 56 781.0 600 0.0 3.2 11.4 307
23/05/2020 15:10 21.6 54 726.6 600 0.0 4.1 14.7 306
23/05/2020 15:20 21.4 54 697.2 600 0.0 3.2 11.5 297
23/05/2020 15:30 21.6 54 667.9 600 0.0 4.6 16.5 313
23/05/2020 15:40 21.4 54 645.9 600 0.0 5.6 20.0 319
23/05/2020 15:50 21.5 55 616.0 600 0.0 5.2 18.8 317
23/05/2020 16:00 21.5 54 593.0 600 0.0 4.6 16.5 307
23/05/2020 16:10 21.6 53 562.4 600 0.0 3.1 11.1 320
23/05/2020 16:20 21.1 54 514.3 578 0.0 5.2 18.8 319
23/05/2020 16:30 21.2 55 497.6 590 0.0 2.8 10.1 319
23/05/2020 16:40 21.2 53 466.9 600 0.0 3.2 11.6 326
23/05/2020 16:50 20.8 54 432.5 600 0.0 3.1 11.2 297
23/05/2020 17:00 20.6 54 406.1 600 0.0 4.0 14.4 337
23/05/2020 17:10 20.3 54 373.5 600 0.0 2.6 9.5 343
23/05/2020 17:20 20.2 54 339.3 600 0.0 2.3 8.4 247
23/05/2020 17:30 19.9 54 307.3 600 0.0 2.2 7.9 260
23/05/2020 17:40 19.5 55 275.1 600 0.0 2.3 8.3 232
23/05/2020 17:50 19.1 56 244.0 600 0.0 2.6 9.3 248
23/05/2020 18:00 19.2 56 212.9 600 0.0 3.1 11.0 260
23/05/2020 18:10 19.0 56 182.7 600 0.0 3.0 10.9 266
23/05/2020 18:20 18.4 57 153.3 600 0.0 3.2 11.6 273
23/05/2020 18:30 18.5 56 123.9 600 0.0 2.3 8.4 300
23/05/2020 18:40 18.2 56 49.5 148 0.0 2.5 9.1 306
23/05/2020 18:50 17.8 59 19.3 0 0.0 1.8 6.4 175
23/05/2020 19:00 17.1 61 9.7 0 0.0 1.2 4.2 233
23/05/2020 19:10 16.7 62 0.0 0 0.0 1.2 4.3 269
23/05/2020 19:20 16.4 64 0.0 0 0.0 1.1 3.8 204
23/05/2020 19:30 16.0 65 0.0 0 0.0 1.1 4.1 220
23/05/2020 19:40 15.6 67 0.0 0 0.0 0.5 1.7 233
23/05/2020 19:50 15.4 68 0.0 0 0.0 0.7 2.6 221
23/05/2020 20:00 14.8 70 0.0 0 0.0 0.5 1.7 193
23/05/2020 20:10 14.8 70 0.0 0 0.0 0.8 2.7 247
23/05/2020 20:20 15.0 68 0.0 0 0.0 1.4 5.1 232
23/05/2020 20:30 14.9 69 0.0 0 0.0 1.4 5.1 251
23/05/2020 20:40 14.6 71 0.0 0 0.0 1.4 4.9 288
23/05/2020 20:50 14.2 72 0.0 0 0.0 0.3 1.1 173
23/05/2020 21:00 14.0 73 0.0 0 0.0 0.5 1.8 188
23/05/2020 21:10 13.8 75 0.0 0 0.0 0.5 1.8 309
23/05/2020 21:20 13.4 76 0.0 0 0.0 0.9 3.2 24
23/05/2020 21:30 13.5 75 0.0 0 0.0 0.7 2.6 181
23/05/2020 21:40 13.6 75 0.0 0 0.0 0.6 2.3 186
23/05/2020 21:50 13.5 75 0.0 0 0.0 0.6 2.2 87
23/05/2020 22:00 13.4 75 0.0 0 0.0 1.0 3.4 298
23/05/2020 22:10 13.4 75 0.0 0 0.0 0.9 3.1 241
23/05/2020 22:20 13.3 76 0.0 0 0.0 0.6 2.1 233
23/05/2020 22:30 13.0 77 0.0 0 0.0 0.8 3.0 318
23/05/2020 22:40 13.0 77 0.0 0 0.0 1.1 4.0 271
23/05/2020 22:50 13.0 78 0.0 0 0.0 1.2 4.1 252
23/05/2020 23:00 12.8 78 0.0 0 0.0 0.4 1.4 298
23/05/2020 23:10 12.5 80 0.0 0 0.0 0.8 2.8 351
23/05/2020 23:20 12.1 81 0.0 0 0.0 0.6 2.1 358
23/05/2020 23:30 12.1 82 0.0 0 0.0 0.3 1.1 41
23/05/2020 23:40 11.6 83 0.0 0 0.0 0.6 2.0 315
23/05/2020 23:50 11.1 85 0.0 0 0.0 0.3 1.0 314
Anterior Página 1 de 1 Siguiente

NOTA: Tipo de datos según el color:
   - Valores diarios o 10 minutos correctos
   - Valores diarios calculados a partir de un número de datos 10 minutos menor que 144 y mayor que 120, o de un número de datos semihorarios menor que 48 y mayor que 40 (caso de las estaciones de INTIA y del Ministerio)
   - Valores diez minutos estimados


Contacto        Enlaces        Aviso legal